Магнитогорск, Russia

30 07, 2016 16:04 YEKT (GMT +0500)
Magnitogorsk | | Change Station

В.н.у.м. 1430 ft 53.39 °N, 58.76 °E | Updated 34 minutes ago

Scattered Clouds
Переменная Облачность
82 °F
Ощущается Как 81 °F
С
9
Ветер переменчевый Ветер от С-СЗ

Сегодня
Высокий -- | Низкий -- °F
--% Вероятн. осадков
Вчера
Высокий -- | Низкий -- °F
Precip. -- дюймов
Давление 29.86 дюймов
Видимость 6.2 милиь
Облачность Переменная Облачность 4000 ft
Индекс Жары 81 °F
Точка Росы 54 °F
Влажность воздуха 37%
Дождь 0.00 дюймов
Глубина снега Нет в наличии.
5:16 AM 9:02 PM
Убывающий полумесяц, 14% visible
METAR USCM 301030Z 34004MPS 300V050 9999 SCT040CB 28/12 Q1011 R01/090065 TEMPO VRB18MPS 2000 TSRAGR SQ BKN005 RMK QFE720
Давление 29.86 дюймов
Видимость 6.2 милиь
Облачность Переменная Облачность 4000 ft
Индекс Жары 81 °F
Точка Росы 54 °F
Влажность воздуха 37%
Дождь 0.00 дюймов
Глубина снега Нет в наличии.
5:16 AM 9:02 PM
Убывающий полумесяц, 14% visible
METAR USCM 301030Z 34004MPS 300V050 9999 SCT040CB 28/12 Q1011 R01/090065 TEMPO VRB18MPS 2000 TSRAGR SQ BKN005 RMK QFE720

10-Day Weather Forecast

×

Almanac

Астрономические явления

Jul. 30, 2016 Восход Закат
Настоящее время
Гражданские сумерки
Навигационные сумерки
Астрономические сумерки
Луна
Длительность светового времени
Продолжительность Дня
Tomorrow will be .
, % of the Moon is Illuminated

Сегодняшние Экстремальные Показания

Country Highs Country Lows

Community

WunderPhotos

Upload Photos

1,928,530 фотографии загружены!

WunderBlog® & News

Nearby

Качество воздуха

  Качество воздуха Индекс AQ Загрязнитель
Not available.

Глубина Снега

Station Depth Высота над уровнем моря

Сейсмическая активность

Город Distance Mag. Time & Date
Minimum magnitude displayed is 2.5.

Температура Прибрежных Вод

Место Температура

Stations

Ближайшие Погодные Станции

Местонахождение Темп. Температура с учетом ветра Точка Росы Влажность воздуха Ветер Precip. В.н.у.м. Последняя сводка Тип